Pasrur Weather



Pasrur's Current Weather

Temprature 25.56o mist

mist

Rain: 0 %

Min Temprature25o
Max Temprature26o
Humidity94
Wind Speed1.5 m/h
Sun Rise05:30:27
Sun Set18:38:10
Current Time: 23-Aug-2019 05:44:31
Lat/Lon: 32.27, 74.67




Pasrur's Geo Location



Pasrur's Weather Forecast

Time Overall Temp Min Temp Max Temp Humidity Wind Speed Rain
23-Aug-2019 (Fri)
08:00:00 clear sky 29.210 29.210 29.997 59 1.29 m/h 0 %
11:00:00 clear sky 34.860 34.860 35.450 43 1.13 m/h 0 %
14:00:00 clear sky 36.940 36.940 37.331 34 1.89 m/h 0 %
17:00:00 clear sky 37.110 37.110 37.311 33 0.97 m/h 0 %
20:00:00 clear sky 31.250 31.250 31.250 50 2.7 m/h 0 %
23:00:00 clear sky 29.142 29.142 29.142 59 1.83 m/h 0 %
24-Aug-2019 (Sat)
02:00:00 clear sky 28.031 28.031 28.031 61 2.35 m/h 0 %
05:00:00 clear sky 27.055 27.055 27.055 65 1.78 m/h 0 %
08:00:00 clear sky 30.627 30.627 30.627 58 2.2 m/h 0 %
11:00:00 clear sky 35.169 35.169 35.169 43 2.45 m/h 0 %
14:00:00 clear sky 38.869 38.869 38.869 33 0.99 m/h 0 %
17:00:00 clear sky 37.623 37.623 37.623 35 2.53 m/h 0 %
20:00:00 clear sky 31.950 31.950 31.950 46 3.11 m/h 0 %
23:00:00 clear sky 29.869 29.869 29.869 54 1.89 m/h 0 %
25-Aug-2019 (Sun)
02:00:00 clear sky 28.531 28.531 28.531 61 2.38 m/h 0 %
05:00:00 clear sky 27.157 27.157 27.157 69 3.32 m/h 0 %
08:00:00 clear sky 30.614 30.614 30.614 62 4.34 m/h 0 %
11:00:00 clear sky 35.216 35.216 35.216 47 3.89 m/h 0 %
14:00:00 clear sky 37.650 37.650 37.650 37 2.72 m/h 0 %
17:00:00 clear sky 36.750 36.750 36.750 42 3.61 m/h 0 %
20:00:00 clear sky 31.481 31.481 31.481 57 3.98 m/h 0 %
23:00:00 clear sky 29.711 29.711 29.711 65 4.31 m/h 0 %
26-Aug-2019 (Mon)
02:00:00 clear sky 27.665 27.665 27.665 76 3.53 m/h 0 %
05:00:00 clear sky 26.250 26.250 26.250 78 3.6 m/h 0 %
08:00:00 clear sky 29.067 29.067 29.067 67 4.49 m/h 0 %
11:00:00 clear sky 34.472 34.472 34.472 49 4.6 m/h 0 %
14:00:00 clear sky 36.584 36.584 36.584 41 3.45 m/h 0 %
17:00:00 clear sky 35.720 35.720 35.720 43 3.09 m/h 0 %
20:00:00 clear sky 31.272 31.272 31.272 53 2.53 m/h 0 %
23:00:00 clear sky 29.314 29.314 29.314 59 2.38 m/h 0 %
27-Aug-2019 (Tue)
02:00:00 scattered clouds 28.016 28.016 28.016 65 1.9 m/h 0 %
05:00:00 broken clouds 27.150 27.150 27.150 70 0.62 m/h 0 %
08:00:00 broken clouds 30.535 30.535 30.535 62 2.42 m/h 0 %
11:00:00 broken clouds 35.536 35.536 35.536 47 1.53 m/h 0 %
14:00:00 broken clouds 37.236 37.236 37.236 39 2.42 m/h 0 %
17:00:00 broken clouds 36.165 36.165 36.165 42 3.2 m/h 0 %
20:00:00 scattered clouds 31.750 31.750 31.750 54 3.3 m/h 0 %
23:00:00 few clouds 30.150 30.150 30.150 59 1.83 m/h 0 %
28-Aug-2019 (Wed)
02:00:00 clear sky 29.057 29.057 29.057 63 1.48 m/h 0 %
05:00:00 scattered clouds 29.472 29.472 29.472 63 2.04 m/h 0 %

Famous Cities (61)